Time;durP1;ratioP1;P1;durP2;ratioP2;P2;SDS_P1;SDS_P2;PMS_P1;PMS_P2;Temp;Humidity;BMP_temperature;BMP_pressure;BME280_temperature;BME280_humidity;BME280_pressure;Samples;Min_cycle;Max_cycle;Signal;HPM_P1;HPM_P2
2024/03/14 00:01:23;;;;;;;12.93;7.70;;;10.90;99.90;;;;;;4966910;28;20031;-71
2024/03/14 00:03:50;;;;;;;13.20;7.82;;;10.80;99.90;;;;;;4965478;28;20122;-71
2024/03/14 00:06:18;;;;;;;13.35;7.45;;;10.90;99.90;;;;;;4959097;28;20031;-71
2024/03/14 00:08:44;;;;;;;14.13;8.05;;;10.90;99.90;;;;;;4962190;28;20041;-71
2024/03/14 00:11:10;;;;;;;14.65;7.90;;;10.90;99.90;;;;;;4964018;28;20443;-71
2024/03/14 00:13:37;;;;;;;17.40;8.50;;;10.90;99.90;;;;;;4961467;28;20107;-71
2024/03/14 00:16:03;;;;;;;12.90;7.53;;;11.00;99.90;;;;;;4965839;28;20034;-71
2024/03/14 00:18:29;;;;;;;14.43;7.95;;;11.00;99.90;;;;;;4963905;28;20053;-71
2024/03/14 00:20:55;;;;;;;12.98;7.38;;;11.10;99.90;;;;;;4962472;28;20715;-71
2024/03/14 00:23:23;;;;;;;13.52;7.43;;;11.20;99.90;;;;;;4963343;28;20710;-70
2024/03/14 00:25:51;;;;;;;10.32;6.72;;;11.20;99.90;;;;;;4963638;28;20462;-71
2024/03/14 00:28:20;;;;;;;12.90;6.85;;;11.30;99.90;;;;;;4960568;28;20491;-71
2024/03/14 00:30:46;;;;;;;11.23;7.07;;;11.30;99.90;;;;;;4965064;28;20026;-71
2024/03/14 00:33:11;;;;;;;15.65;8.77;;;11.40;99.90;;;;;;4965397;28;20035;-71
2024/03/14 00:35:39;;;;;;;11.05;6.97;;;11.40;99.90;;;;;;4960960;28;20034;-71
2024/03/14 00:38:05;;;;;;;13.85;7.32;;;11.30;99.90;;;;;;4966503;28;20299;-71
2024/03/14 00:40:31;;;;;;;12.68;7.40;;;11.30;99.90;;;;;;4963002;28;20073;-71
2024/03/14 00:42:57;;;;;;;13.07;7.55;;;11.30;99.90;;;;;;4975780;28;20471;-71
2024/03/14 00:45:23;;;;;;;14.45;8.32;;;11.30;99.90;;;;;;4964427;28;20570;-71
2024/03/14 00:47:49;;;;;;;13.05;7.22;;;11.40;99.90;;;;;;4963258;28;20037;-71
2024/03/14 00:50:15;;;;;;;11.68;7.47;;;11.40;99.90;;;;;;4959782;28;20074;-70
2024/03/14 00:52:40;;;;;;;12.35;6.68;;;11.40;99.90;;;;;;4964493;28;20042;-71
2024/03/14 00:55:09;;;;;;;11.63;7.20;;;11.40;99.90;;;;;;4963615;28;20031;-71
2024/03/14 00:57:35;;;;;;;15.68;7.78;;;11.40;99.90;;;;;;4960523;28;20063;-71
2024/03/14 01:00:10;;;;;;;13.50;7.00;;;11.40;99.90;;;;;;4965095;28;20503;-71
2024/03/14 01:02:36;;;;;;;14.32;7.47;;;11.40;99.90;;;;;;4979754;28;20094;-71
2024/03/14 01:05:05;;;;;;;15.15;7.72;;;11.40;99.90;;;;;;4958798;28;20024;-71
2024/03/14 01:07:32;;;;;;;12.85;7.97;;;11.40;99.90;;;;;;4980548;28;20045;-71
2024/03/14 01:09:58;;;;;;;13.32;7.82;;;11.50;99.90;;;;;;4962270;28;20544;-71
2024/03/14 01:12:24;;;;;;;14.18;7.65;;;11.50;99.90;;;;;;4959058;28;20038;-71
2024/03/14 01:14:50;;;;;;;12.43;6.80;;;11.50;99.90;;;;;;4964589;28;20035;-71
2024/03/14 01:17:16;;;;;;;11.95;7.60;;;11.50;99.90;;;;;;4963869;28;20081;-70
2024/03/14 01:19:42;;;;;;;14.20;7.00;;;11.50;99.90;;;;;;4960004;28;20031;-71
2024/03/14 01:22:08;;;;;;;13.25;7.50;;;11.50;99.90;;;;;;4961242;28;20042;-70
2024/03/14 01:24:37;;;;;;;12.95;7.78;;;11.40;99.90;;;;;;4961423;28;20513;-71
2024/03/14 01:27:03;;;;;;;12.65;7.35;;;11.40;99.90;;;;;;4961716;28;20576;-71
2024/03/14 01:29:29;;;;;;;15.63;8.52;;;11.30;99.90;;;;;;4964562;28;20027;-71
2024/03/14 01:31:54;;;;;;;14.93;7.38;;;11.40;99.90;;;;;;4964230;28;20469;-71
2024/03/14 01:34:20;;;;;;;13.95;7.75;;;11.30;99.90;;;;;;4972517;28;20082;-71
2024/03/14 01:36:46;;;;;;;14.35;8.30;;;11.40;99.90;;;;;;4962541;28;20027;-71
2024/03/14 01:39:14;;;;;;;15.60;8.18;;;11.40;99.90;;;;;;4962836;28;20042;-71
2024/03/14 01:41:41;;;;;;;11.85;7.15;;;11.50;99.90;;;;;;4959184;28;20038;-71
2024/03/14 01:44:06;;;;;;;12.15;8.00;;;11.60;99.90;;;;;;4965079;28;20066;-71
2024/03/14 01:46:33;;;;;;;13.88;7.80;;;11.60;99.90;;;;;;4962376;28;20155;-71
2024/03/14 01:49:00;;;;;;;13.55;8.32;;;11.60;99.90;;;;;;4959914;28;20085;-71
2024/03/14 01:51:28;;;;;;;14.70;7.95;;;11.70;99.90;;;;;;4961725;28;20030;-72
2024/03/14 01:53:57;;;;;;;12.15;7.40;;;11.60;99.90;;;;;;4960655;28;20058;-71
2024/03/14 01:56:23;;;;;;;17.60;8.80;;;11.60;99.90;;;;;;4960082;28;20080;-71
2024/03/14 01:58:53;;;;;;;18.55;9.63;;;11.50;99.90;;;;;;4978318;28;20041;-71
2024/03/14 02:01:23;;;;;;;18.08;9.40;;;11.60;99.90;;;;;;4962060;28;20427;-71
2024/03/14 02:04:02;;;;;;;20.02;9.52;;;11.50;99.90;;;;;;4958320;28;20042;-71
2024/03/14 02:06:36;;;;;;;18.73;9.23;;;11.50;99.90;;;;;;4960178;28;20126;-71
2024/03/14 02:09:02;;;;;;;17.05;8.50;;;11.50;99.90;;;;;;4960909;28;20031;-71
2024/03/14 02:11:28;;;;;;;15.55;9.30;;;11.60;99.90;;;;;;4957577;28;20785;-71
2024/03/14 02:13:55;;;;;;;15.18;8.60;;;11.60;99.90;;;;;;4978008;28;20043;-72
2024/03/14 02:16:21;;;;;;;14.18;7.80;;;11.60;99.90;;;;;;4962582;28;20041;-71
2024/03/14 02:18:47;;;;;;;16.75;8.70;;;11.70;99.90;;;;;;4959459;28;20035;-71
2024/03/14 02:21:13;;;;;;;15.20;8.45;;;11.70;99.90;;;;;;4959581;28;20031;-71
2024/03/14 02:23:38;;;;;;;16.48;8.40;;;11.70;99.90;;;;;;4960450;28;20117;-71
2024/03/14 02:26:06;;;;;;;12.13;6.80;;;11.70;99.90;;;;;;4958738;28;20037;-71
2024/03/14 02:28:32;;;;;;;15.30;9.02;;;11.70;99.90;;;;;;4963056;28;20665;-71
2024/03/14 02:30:58;;;;;;;14.70;7.97;;;11.80;99.90;;;;;;4963646;28;20042;-71
2024/03/14 02:33:24;;;;;;;13.35;8.57;;;11.80;99.90;;;;;;4957537;28;20031;-71
2024/03/14 02:35:49;;;;;;;13.27;7.60;;;11.80;99.90;;;;;;4959877;28;20108;-71
2024/03/14 02:38:15;;;;;;;13.88;7.28;;;11.80;99.90;;;;;;4960585;28;20041;-71
2024/03/14 02:40:41;;;;;;;16.35;7.78;;;11.90;99.90;;;;;;4957924;28;20042;-71
2024/03/14 02:43:07;;;;;;;14.75;8.23;;;11.90;99.90;;;;;;4962281;28;20039;-71
2024/03/14 02:45:32;;;;;;;12.38;7.55;;;12.00;99.90;;;;;;4962123;28;20111;-71
2024/03/14 02:47:58;;;;;;;13.48;7.78;;;12.00;99.90;;;;;;4958442;28;20038;-71
2024/03/14 02:50:24;;;;;;;13.75;7.60;;;12.10;99.90;;;;;;4960333;28;20081;-71
2024/03/14 02:52:50;;;;;;;14.80;7.82;;;12.00;99.90;;;;;;4960159;28;20121;-71
2024/03/14 02:55:16;;;;;;;12.45;7.07;;;12.00;99.90;;;;;;4959253;28;20043;-71
2024/03/14 02:57:44;;;;;;;13.55;8.13;;;12.00;99.90;;;;;;4963177;28;20146;-71
2024/03/14 03:00:16;;;;;;;17.88;8.80;;;12.10;99.90;;;;;;4963713;28;20045;-71
2024/03/14 03:02:44;;;;;;;15.32;7.18;;;12.10;99.90;;;;;;4959200;28;20034;-71
2024/03/14 03:05:10;;;;;;;12.02;6.95;;;12.10;99.90;;;;;;4959720;28;20074;-71
2024/03/14 03:07:37;;;;;;;12.38;6.65;;;12.10;99.90;;;;;;4960370;28;20577;-71
2024/03/14 03:10:06;;;;;;;13.77;7.63;;;12.10;99.90;;;;;;4959307;28;20074;-71
2024/03/14 03:12:39;;;;;;;10.82;6.05;;;12.10;99.90;;;;;;4963263;28;20039;-71
2024/03/14 03:15:06;;;;;;;11.55;6.50;;;12.10;99.90;;;;;;4961941;28;20043;-71
2024/03/14 03:17:32;;;;;;;11.00;6.15;;;12.10;99.90;;;;;;4959079;28;20023;-72
2024/03/14 03:19:58;;;;;;;11.68;6.60;;;12.10;99.90;;;;;;4960012;28;20398;-71
2024/03/14 03:22:28;;;;;;;12.73;6.65;;;12.10;99.90;;;;;;4960655;28;21547;-71
2024/03/14 03:24:53;;;;;;;12.13;6.93;;;12.10;99.90;;;;;;4959305;28;21559;-71
2024/03/14 03:27:19;;;;;;;11.75;6.63;;;12.20;99.90;;;;;;4961575;28;20031;-71
2024/03/14 03:29:45;;;;;;;12.27;6.55;;;12.20;99.90;;;;;;4962852;28;20826;-71
2024/03/14 03:32:11;;;;;;;11.90;7.25;;;12.20;99.90;;;;;;4958214;28;20790;-71
2024/03/14 03:34:37;;;;;;;13.35;6.80;;;12.10;99.90;;;;;;4958655;28;20028;-71
2024/03/14 03:37:03;;;;;;;12.73;6.45;;;12.10;99.90;;;;;;4959395;28;21204;-71
2024/03/14 03:39:31;;;;;;;12.82;7.10;;;12.10;99.90;;;;;;4957535;28;20042;-71
2024/03/14 03:41:56;;;;;;;12.23;7.10;;;12.10;99.90;;;;;;4962695;28;20030;-71
2024/03/14 03:44:23;;;;;;;16.80;9.68;;;12.10;99.90;;;;;;4960972;28;20077;-71
2024/03/14 03:46:51;;;;;;;22.02;10.30;;;12.20;99.90;;;;;;4960777;28;20035;-71
2024/03/14 03:49:16;;;;;;;21.05;11.20;;;12.30;99.90;;;;;;4959286;28;20031;-71
2024/03/14 03:51:45;;;;;;;20.73;10.18;;;12.30;99.90;;;;;;4959519;28;20030;-71
2024/03/14 03:54:11;;;;;;;16.38;8.43;;;12.20;99.90;;;;;;4959432;28;20085;-71
2024/03/14 03:56:36;;;;;;;23.23;10.40;;;12.10;99.90;;;;;;4961492;28;20447;-71
2024/03/14 03:59:02;;;;;;;22.45;10.18;;;12.10;99.90;;;;;;4963079;28;20824;-71
2024/03/14 04:01:28;;;;;;;19.42;10.32;;;12.10;99.90;;;;;;4958282;28;20513;-71
2024/03/14 04:03:54;;;;;;;20.67;10.68;;;12.10;99.90;;;;;;4960445;28;20046;-71
2024/03/14 04:06:21;;;;;;;22.40;10.73;;;12.20;99.90;;;;;;4959810;28;20030;-71
2024/03/14 04:08:47;;;;;;;21.10;11.27;;;12.20;99.90;;;;;;4958102;28;20067;-71
2024/03/14 04:11:13;;;;;;;23.25;10.73;;;12.20;99.90;;;;;;4965360;28;20065;-70
2024/03/14 04:13:38;;;;;;;26.77;12.10;;;12.20;99.90;;;;;;4969326;28;20038;-71
2024/03/14 04:16:04;;;;;;;24.08;11.68;;;12.20;99.90;;;;;;4956639;28;20030;-72
2024/03/14 04:18:31;;;;;;;23.15;11.80;;;12.20;99.90;;;;;;4959624;28;20042;-71
2024/03/14 04:20:56;;;;;;;26.45;12.00;;;12.20;99.90;;;;;;4958573;28;20037;-72
2024/03/14 04:23:26;;;;;;;26.17;11.43;;;12.20;99.90;;;;;;4958094;28;20034;-71
2024/03/14 04:25:56;;;;;;;29.00;12.45;;;12.20;99.90;;;;;;4962181;28;20041;-71
2024/03/14 04:28:25;;;;;;;31.23;13.88;;;12.10;99.90;;;;;;4960359;28;20105;-71
2024/03/14 04:30:51;;;;;;;26.45;12.13;;;12.00;99.90;;;;;;4956136;28;20118;-71
2024/03/14 04:33:20;;;;;;;27.70;12.75;;;11.90;99.90;;;;;;4959470;28;20499;-71
2024/03/14 04:35:46;;;;;;;31.92;13.23;;;11.80;99.90;;;;;;4959283;28;20138;-71
2024/03/14 04:38:12;;;;;;;24.27;12.10;;;11.80;99.90;;;;;;4958442;28;20073;-71
2024/03/14 04:40:39;;;;;;;24.13;11.10;;;11.80;99.90;;;;;;4960753;28;20739;-71
2024/03/14 04:43:04;;;;;;;25.70;11.20;;;11.90;99.90;;;;;;4961639;28;20035;-71
2024/03/14 04:45:30;;;;;;;20.85;10.52;;;11.90;99.90;;;;;;4960197;28;20042;-71
2024/03/14 04:47:56;;;;;;;26.55;13.00;;;11.90;99.90;;;;;;4963279;28;20019;-71
2024/03/14 04:50:22;;;;;;;19.00;10.95;;;12.00;99.90;;;;;;4962901;28;20027;-71
2024/03/14 04:52:54;;;;;;;25.33;12.02;;;12.00;99.90;;;;;;4960569;28;20042;-71
2024/03/14 04:55:20;;;;;;;25.70;12.27;;;12.00;99.90;;;;;;4965222;28;20038;-71
2024/03/14 04:57:46;;;;;;;26.30;12.23;;;12.00;99.90;;;;;;4964634;28;20033;-71
2024/03/14 05:00:20;;;;;;;20.48;10.95;;;12.10;99.90;;;;;;4960404;28;20536;-71
2024/03/14 05:02:51;;;;;;;21.38;10.95;;;12.10;99.90;;;;;;4961108;28;20039;-71
2024/03/14 05:05:17;;;;;;;23.13;11.02;;;12.10;99.90;;;;;;4962867;28;20089;-71
2024/03/14 05:07:44;;;;;;;23.17;11.27;;;12.10;99.90;;;;;;4959069;28;20138;-71
2024/03/14 05:10:13;;;;;;;31.88;12.73;;;12.20;99.90;;;;;;4974253;28;20487;-71
2024/03/14 05:12:39;;;;;;;24.40;11.93;;;12.20;99.90;;;;;;4962697;28;20078;-71
2024/03/14 05:15:07;;;;;;;27.23;11.77;;;12.20;99.90;;;;;;4957338;28;20038;-71
2024/03/14 05:17:34;;;;;;;26.60;12.07;;;12.10;99.90;;;;;;4962260;28;20033;-71
2024/03/14 05:20:00;;;;;;;26.08;12.63;;;12.10;99.90;;;;;;4961897;28;20085;-72
2024/03/14 05:22:28;;;;;;;25.30;12.25;;;12.10;99.90;;;;;;4958991;28;20121;-71
2024/03/14 05:24:58;;;;;;;25.52;11.45;;;12.00;99.90;;;;;;4965609;28;20044;-71
2024/03/14 05:27:25;;;;;;;27.70;13.02;;;12.00;99.90;;;;;;4962618;28;20035;-71
2024/03/14 05:29:51;;;;;;;22.48;10.77;;;12.00;99.90;;;;;;4960034;28;20062;-71
2024/03/14 05:32:21;;;;;;;26.85;11.68;;;12.00;99.90;;;;;;4961130;28;20062;-71
2024/03/14 05:34:50;;;;;;;25.90;12.15;;;12.10;99.90;;;;;;4963762;28;20419;-71
2024/03/14 05:37:16;;;;;;;25.35;12.00;;;12.10;99.90;;;;;;4959923;28;20043;-71
2024/03/14 05:39:42;;;;;;;25.25;10.98;;;12.00;99.90;;;;;;4963391;28;20034;-72
2024/03/14 05:42:12;;;;;;;23.65;11.32;;;12.00;99.90;;;;;;4963527;28;20043;-71
2024/03/14 05:44:41;;;;;;;25.73;12.60;;;12.00;99.90;;;;;;4958080;28;20065;-71
2024/03/14 05:47:10;;;;;;;25.15;12.65;;;12.10;99.90;;;;;;4961401;28;20517;-71
2024/03/14 05:49:36;;;;;;;26.08;12.60;;;12.10;99.90;;;;;;4961189;28;20042;-71
2024/03/14 05:52:03;;;;;;;22.80;11.50;;;12.10;99.90;;;;;;4959064;28;20019;-71
2024/03/14 05:54:30;;;;;;;27.77;13.05;;;12.10;99.90;;;;;;4964003;28;20148;-71
2024/03/14 05:56:56;;;;;;;28.35;12.82;;;12.20;99.90;;;;;;4962826;28;20039;-71
2024/03/14 05:59:22;;;;;;;29.85;12.27;;;12.20;99.90;;;;;;4957992;28;20046;-71
2024/03/14 06:01:48;;;;;;;24.23;11.57;;;12.20;99.90;;;;;;4961847;28;20028;-74
2024/03/14 06:04:14;;;;;;;26.20;12.40;;;12.10;99.90;;;;;;4960677;28;20027;-71
2024/03/14 06:06:40;;;;;;;27.95;13.68;;;12.10;99.90;;;;;;4957001;28;20023;-71
2024/03/14 06:09:06;;;;;;;28.92;12.18;;;12.20;99.90;;;;;;4965069;28;20770;-71
2024/03/14 06:11:32;;;;;;;27.92;12.45;;;12.10;99.90;;;;;;4961655;28;20141;-71
2024/03/14 06:13:58;;;;;;;26.45;13.43;;;12.20;99.90;;;;;;4957880;28;20128;-71
2024/03/14 06:16:28;;;;;;;28.27;13.05;;;12.30;99.90;;;;;;4975429;28;20031;-71
2024/03/14 06:18:53;;;;;;;26.92;12.85;;;12.30;99.90;;;;;;4960013;28;20038;-72
2024/03/14 06:21:22;;;;;;;26.73;12.30;;;12.30;99.90;;;;;;4957834;28;20031;-71
2024/03/14 06:23:51;;;;;;;24.75;12.05;;;12.30;99.90;;;;;;4965129;28;20401;-71
2024/03/14 06:26:17;;;;;;;29.75;12.95;;;12.30;99.90;;;;;;4962085;28;20093;-72
2024/03/14 06:28:45;;;;;;;28.98;12.88;;;12.30;99.90;;;;;;4958985;28;20046;-71
2024/03/14 06:31:14;;;;;;;26.40;12.60;;;12.40;99.90;;;;;;4960095;28;20037;-71
2024/03/14 06:33:40;;;;;;;26.50;13.23;;;12.40;99.90;;;;;;4960333;28;20030;-71
2024/03/14 06:36:07;;;;;;;35.80;13.73;;;12.40;99.90;;;;;;4959948;28;20522;-71
2024/03/14 06:38:33;;;;;;;25.77;13.10;;;12.40;99.90;;;;;;4963962;28;20521;-71
2024/03/14 06:40:59;;;;;;;31.70;13.00;;;12.40;99.90;;;;;;4962890;28;20554;-71
2024/03/14 06:43:25;;;;;;;28.08;13.45;;;12.50;99.90;;;;;;4956368;28;20406;-71
2024/03/14 06:45:51;;;;;;;26.50;12.95;;;12.60;99.90;;;;;;4974544;28;20031;-71
2024/03/14 06:48:17;;;;;;;26.20;12.75;;;12.50;99.90;;;;;;4958330;28;20026;-71
2024/03/14 06:50:45;;;;;;;25.55;12.30;;;12.50;99.90;;;;;;4956793;28;20035;-71
2024/03/14 06:53:12;;;;;;;24.88;12.77;;;12.50;99.90;;;;;;4964381;28;20046;-71
2024/03/14 06:55:38;;;;;;;26.90;12.48;;;12.50;99.90;;;;;;4959368;28;20066;-71
2024/03/14 06:58:04;;;;;;;28.90;13.40;;;12.60;99.90;;;;;;4957248;28;20529;-71
2024/03/14 07:00:30;;;;;;;26.10;13.77;;;12.60;99.90;;;;;;4960468;28;20030;-71
2024/03/14 07:02:56;;;;;;;28.35;13.23;;;12.60;99.90;;;;;;4958516;28;20043;-71
2024/03/14 07:05:27;;;;;;;28.98;12.20;;;12.60;99.90;;;;;;4955669;28;20090;-71
2024/03/14 07:07:53;;;;;;;24.77;12.15;;;12.70;99.90;;;;;;4960860;28;20022;-72
2024/03/14 07:10:19;;;;;;;29.35;13.10;;;12.60;99.90;;;;;;4959864;28;20041;-71
2024/03/14 07:12:45;;;;;;;26.92;13.13;;;12.70;99.90;;;;;;4955250;28;20110;-71
2024/03/14 07:15:12;;;;;;;25.10;11.48;;;12.70;99.90;;;;;;4965202;28;20493;-71
2024/03/14 07:17:38;;;;;;;22.02;11.25;;;12.60;99.90;;;;;;4958515;28;20027;-70
2024/03/14 07:20:16;;;;;;;25.23;12.27;;;12.60;99.90;;;;;;4956883;28;20127;-71
2024/03/14 07:22:43;;;;;;;29.95;13.25;;;12.70;99.90;;;;;;4964820;28;20450;-71
2024/03/14 07:25:11;;;;;;;25.42;12.68;;;12.80;99.90;;;;;;4959377;28;20482;-72
2024/03/14 07:27:38;;;;;;;28.75;13.45;;;12.80;99.90;;;;;;4957945;28;20030;-71
2024/03/14 07:30:07;;;;;;;24.95;12.52;;;12.70;99.90;;;;;;4958294;28;20538;-71
2024/03/14 07:32:35;;;;;;;24.67;12.90;;;12.80;99.90;;;;;;4973165;28;20235;-71
2024/03/14 07:35:02;;;;;;;24.02;11.57;;;12.70;99.90;;;;;;4956208;28;20066;-71
2024/03/14 07:37:28;;;;;;;24.15;11.55;;;12.70;99.90;;;;;;4963832;28;20498;-71
2024/03/14 07:39:54;;;;;;;27.27;12.93;;;12.80;99.90;;;;;;4963219;28;20827;-71
2024/03/14 07:42:21;;;;;;;21.42;11.60;;;12.80;99.90;;;;;;4954274;28;20139;-71
2024/03/14 07:44:47;;;;;;;28.00;12.75;;;12.80;99.90;;;;;;4959068;28;20646;-71
2024/03/14 07:47:19;;;;;;;25.05;12.25;;;12.90;99.90;;;;;;4957239;28;20855;-71
2024/03/14 07:49:48;;;;;;;24.30;12.10;;;13.10;99.90;;;;;;4956978;28;20085;-71
2024/03/14 07:52:15;;;;;;;24.60;11.75;;;13.20;99.90;;;;;;4963360;28;20139;-71
2024/03/14 07:54:44;;;;;;;24.08;12.82;;;13.30;99.90;;;;;;4958394;28;20038;-71
2024/03/14 07:57:14;;;;;;;25.48;12.57;;;13.40;99.90;;;;;;4954959;28;20767;-71
2024/03/14 07:59:44;;;;;;;22.35;11.10;;;13.50;99.90;;;;;;4959347;28;20770;-71
2024/03/14 08:02:11;;;;;;;26.48;13.38;;;13.40;99.90;;;;;;4956142;28;20409;-71
2024/03/14 08:04:47;;;;;;;26.08;13.60;;;13.40;99.90;;;;;;4966959;28;20089;-71
2024/03/14 08:07:17;;;;;;;21.17;11.02;;;13.40;99.90;;;;;;4962496;28;20118;-71
2024/03/14 08:09:47;;;;;;;23.40;11.07;;;13.40;99.90;;;;;;4955373;28;20168;-71
2024/03/14 08:12:14;;;;;;;25.65;12.73;;;13.40;99.90;;;;;;4955134;28;20031;-71
2024/03/14 08:14:43;;;;;;;26.08;12.68;;;13.40;99.90;;;;;;4960426;28;20037;-71
2024/03/14 08:17:16;;;;;;;25.30;12.02;;;13.40;99.90;;;;;;4955356;28;20506;-71
2024/03/14 08:19:48;;;;;;;24.92;11.60;;;13.40;99.90;;;;;;4961375;28;20031;-72
2024/03/14 08:22:14;;;;;;;24.90;12.13;;;13.40;99.90;;;;;;4967831;28;20527;-71
2024/03/14 08:24:47;;;;;;;24.77;11.75;;;13.30;99.90;;;;;;4962784;28;20031;-71
2024/03/14 08:27:13;;;;;;;26.08;12.05;;;13.40;99.90;;;;;;4958718;28;20566;-71
2024/03/14 08:29:40;;;;;;;24.38;11.80;;;13.50;99.90;;;;;;4964569;28;20022;-71
2024/03/14 08:32:06;;;;;;;23.48;10.90;;;13.60;99.90;;;;;;4962913;28;20046;-71
2024/03/14 08:34:34;;;;;;;27.48;11.95;;;13.80;99.90;;;;;;4959951;28;20550;-71
2024/03/14 08:37:00;;;;;;;21.27;10.60;;;13.80;99.90;;;;;;4966479;28;20394;-71
2024/03/14 08:39:28;;;;;;;23.60;11.70;;;13.80;99.90;;;;;;4959338;28;20039;-71
2024/03/14 08:41:54;;;;;;;24.90;11.68;;;13.70;99.90;;;;;;4963195;28;20546;-72
2024/03/14 08:44:27;;;;;;;23.20;10.80;;;13.60;99.90;;;;;;4961018;28;20042;-72
2024/03/14 08:46:53;;;;;;;22.35;10.52;;;13.50;99.90;;;;;;4960058;28;20032;-72
2024/03/14 08:49:19;;;;;;;22.80;11.35;;;13.40;99.90;;;;;;4962548;28;20566;-72
2024/03/14 08:51:45;;;;;;;21.75;10.43;;;13.40;99.90;;;;;;4965613;28;20037;-69
2024/03/14 08:56:47;;;;;;;27.20;12.13;;;13.70;99.90;;;;;;4958219;28;20042;-69
2024/03/14 08:59:13;;;;;;;24.15;11.55;;;13.70;99.90;;;;;;4961572;28;20038;-69
2024/03/14 09:01:45;;;;;;;24.02;11.40;;;13.70;99.90;;;;;;4958726;28;20578;-68
2024/03/14 09:04:18;;;;;;;21.73;11.10;;;13.70;99.90;;;;;;4962616;28;20074;-70
2024/03/14 09:06:45;;;;;;;20.08;9.52;;;13.60;99.90;;;;;;4965127;28;20034;-68
2024/03/14 09:09:23;;;;;;;20.13;10.35;;;13.60;99.90;;;;;;4958918;28;20389;-67
2024/03/14 09:11:50;;;;;;;20.95;10.35;;;13.60;99.90;;;;;;4973797;28;20494;-68
2024/03/14 09:14:16;;;;;;;21.63;10.25;;;13.70;99.90;;;;;;4958970;28;20541;-67
2024/03/14 09:16:44;;;;;;;21.45;11.10;;;14.00;99.90;;;;;;4965398;28;20046;-67
2024/03/14 09:19:11;;;;;;;18.13;9.63;;;14.00;99.90;;;;;;4962204;28;20501;-67
2024/03/14 09:21:39;;;;;;;19.45;9.40;;;14.10;99.90;;;;;;4965390;28;20098;-67
2024/03/14 09:24:11;;;;;;;19.58;9.90;;;14.00;99.90;;;;;;4957750;28;20102;-68
2024/03/14 09:26:38;;;;;;;17.20;9.02;;;14.10;99.90;;;;;;4956266;28;20525;-68
2024/03/14 09:29:05;;;;;;;23.25;12.05;;;14.00;99.90;;;;;;4962806;28;20501;-67
2024/03/14 09:31:32;;;;;;;17.98;9.23;;;14.10;99.90;;;;;;4956131;28;20027;-70
2024/03/14 09:33:58;;;;;;;19.70;9.02;;;14.10;99.90;;;;;;4963687;28;20053;-68
2024/03/14 09:36:26;;;;;;;18.77;9.48;;;14.00;99.90;;;;;;4966487;28;20037;-67
2024/03/14 09:38:53;;;;;;;18.38;9.43;;;13.90;99.90;;;;;;4958206;28;20031;-67
2024/03/14 09:41:19;;;;;;;16.35;8.40;;;14.00;99.90;;;;;;4958310;28;20067;-67
2024/03/14 09:43:45;;;;;;;16.77;8.82;;;14.10;99.90;;;;;;4960771;28;20031;-66
2024/03/14 09:46:15;;;;;;;16.17;8.95;;;14.20;99.90;;;;;;4957351;28;20038;-66
2024/03/14 09:48:41;;;;;;;16.27;8.18;;;14.30;99.90;;;;;;4961412;28;20844;-69
2024/03/14 09:51:09;;;;;;;16.40;8.43;;;14.40;99.90;;;;;;4965632;28;20046;-69
2024/03/14 09:53:37;;;;;;;17.27;8.40;;;14.60;99.90;;;;;;4958855;28;20481;-69
2024/03/14 09:56:04;;;;;;;12.60;7.60;;;14.60;99.90;;;;;;4964268;28;21445;-69
2024/03/14 09:58:30;;;;;;;15.32;8.52;;;14.60;99.90;;;;;;4958662;28;20490;-69
2024/03/14 10:00:56;;;;;;;18.05;8.93;;;14.70;99.90;;;;;;4955182;28;20126;-69
2024/03/14 10:03:22;;;;;;;16.60;8.45;;;14.60;99.90;;;;;;4960435;28;20425;-69
2024/03/14 10:05:52;;;;;;;16.60;8.32;;;14.50;99.90;;;;;;4965027;28;20115;-68
2024/03/14 10:08:22;;;;;;;14.30;7.65;;;14.40;99.90;;;;;;4954040;28;20034;-69
2024/03/14 10:10:48;;;;;;;13.95;7.70;;;14.40;99.90;;;;;;4957591;28;20027;-68
2024/03/14 10:13:29;;;;;;;16.95;8.30;;;14.50;99.90;;;;;;4974872;28;20031;-69
2024/03/14 10:15:55;;;;;;;14.98;7.97;;;14.50;99.90;;;;;;4961431;28;20031;-68
2024/03/14 10:18:26;;;;;;;14.27;7.75;;;14.50;99.90;;;;;;4962118;28;20041;-69
2024/03/14 10:20:53;;;;;;;12.88;7.07;;;14.40;99.90;;;;;;4964959;28;20038;-69
2024/03/14 10:23:19;;;;;;;13.30;7.43;;;14.60;99.90;;;;;;4955350;28;20039;-69
2024/03/14 10:25:50;;;;;;;14.73;8.30;;;14.70;99.90;;;;;;4959566;28;20379;-69
2024/03/14 10:28:18;;;;;;;12.25;7.13;;;14.90;99.90;;;;;;4961269;28;20180;-68
2024/03/14 10:30:57;;;;;;;16.70;8.50;;;15.10;99.90;;;;;;4956691;28;20027;-69
2024/03/14 10:33:26;;;;;;;14.88;7.80;;;15.30;99.90;;;;;;4960602;28;20038;-69
2024/03/14 10:35:59;;;;;;;17.80;8.85;;;15.40;99.90;;;;;;4962163;28;20037;-69
2024/03/14 10:38:26;;;;;;;14.73;7.85;;;15.50;99.90;;;;;;4953762;28;20468;-69
2024/03/14 10:40:57;;;;;;;16.05;9.70;;;15.60;99.90;;;;;;4975258;28;20035;-69
2024/03/14 10:43:31;;;;;;;17.85;8.55;;;15.40;99.90;;;;;;4961373;28;20769;-69
2024/03/14 10:45:57;;;;;;;15.75;8.65;;;15.20;99.90;;;;;;4955009;28;20078;-69
2024/03/14 10:48:25;;;;;;;18.17;9.02;;;15.40;99.90;;;;;;4959270;28;20831;-69
2024/03/14 10:50:56;;;;;;;15.57;8.10;;;15.30;99.90;;;;;;4964867;28;20030;-68
2024/03/14 10:53:24;;;;;;;15.15;8.45;;;15.40;99.90;;;;;;4957203;28;20048;-69
2024/03/14 10:55:52;;;;;;;14.10;7.45;;;15.60;99.90;;;;;;4955691;28;20081;-69
2024/03/14 10:58:19;;;;;;;15.05;6.93;;;15.70;99.90;;;;;;4959249;28;20041;-69
2024/03/14 11:00:47;;;;;;;13.65;7.32;;;15.80;99.90;;;;;;4955434;28;20030;-70
2024/03/14 11:03:17;;;;;;;11.38;6.40;;;16.10;99.90;;;;;;4964037;28;20196;-69
2024/03/14 11:05:46;;;;;;;11.05;6.30;;;16.10;99.90;;;;;;4962927;28;20031;-69
2024/03/14 11:08:14;;;;;;;11.20;7.50;;;16.30;99.90;;;;;;4957331;28;20109;-69
2024/03/14 11:10:43;;;;;;;11.85;6.40;;;17.10;99.90;;;;;;4957659;28;20037;-69
2024/03/14 11:13:11;;;;;;;11.07;5.68;;;18.90;99.90;;;;;;4959496;28;20145;-69
2024/03/14 11:15:39;;;;;;;11.75;6.35;;;19.20;98.20;;;;;;4953990;28;20745;-70
2024/03/14 11:18:16;;;;;;;11.20;6.03;;;19.20;97.50;;;;;;4958915;28;20050;-69
2024/03/14 11:20:51;;;;;;;11.93;6.78;;;18.50;97.90;;;;;;4976905;28;20039;-69
2024/03/14 11:23:22;;;;;;;11.77;6.78;;;18.00;99.60;;;;;;4961517;28;20057;-70
2024/03/14 11:25:55;;;;;;;8.88;6.00;;;17.90;98.90;;;;;;4960498;28;20641;-70
2024/03/14 11:28:24;;;;;;;9.85;6.05;;;17.70;98.90;;;;;;4969241;28;20034;-70
2024/03/14 11:30:51;;;;;;;9.60;6.00;;;17.40;99.20;;;;;;4957118;28;20033;-70
2024/03/14 11:33:18;;;;;;;9.77;5.60;;;17.10;98.60;;;;;;4961361;28;20034;-70
2024/03/14 11:35:44;;;;;;;9.60;6.05;;;16.80;99.70;;;;;;4959004;28;20117;-70
2024/03/14 11:38:31;;;;;;;9.05;5.55;;;16.60;99.90;;;;;;4952923;28;20057;-69
2024/03/14 11:41:02;;;;;;;10.82;6.38;;;16.60;99.90;;;;;;4958199;28;20169;-69
2024/03/14 11:43:28;;;;;;;11.07;6.57;;;16.60;99.90;;;;;;4958430;28;20043;-68
2024/03/14 11:46:04;;;;;;;9.98;5.28;;;16.50;99.90;;;;;;4955587;28;20030;-69
2024/03/14 11:48:31;;;;;;;13.25;6.57;;;16.50;99.90;;;;;;4962698;28;20050;-69
2024/03/14 11:51:01;;;;;;;9.75;5.38;;;16.40;99.90;;;;;;4958688;28;20043;-69
2024/03/14 11:53:29;;;;;;;9.32;5.45;;;16.40;99.90;;;;;;4954719;28;20043;-69
2024/03/14 11:55:56;;;;;;;8.55;5.20;;;16.50;99.90;;;;;;4956017;28;20492;-71
2024/03/14 11:58:23;;;;;;;7.55;4.80;;;16.70;99.90;;;;;;4954273;28;20082;-70
2024/03/14 12:00:53;;;;;;;9.05;5.35;;;16.50;99.90;;;;;;4958949;28;20031;-71
2024/03/14 12:03:21;;;;;;;9.40;5.63;;;16.60;99.70;;;;;;4963044;28;20069;-70
2024/03/14 12:05:53;;;;;;;7.35;4.60;;;16.70;99.80;;;;;;4958955;28;20037;-70
2024/03/14 12:08:19;;;;;;;7.35;4.40;;;16.60;98.90;;;;;;4954929;28;20035;-64
2024/03/14 12:10:52;;;;;;;8.60;5.25;;;16.50;99.10;;;;;;4955669;28;20037;-66
2024/03/14 12:13:23;;;;;;;7.57;4.30;;;16.30;98.60;;;;;;4957603;28;20042;-69
2024/03/14 12:15:59;;;;;;;10.68;5.75;;;16.10;99.00;;;;;;4957083;28;20047;-65
2024/03/14 12:18:26;;;;;;;9.10;5.28;;;16.00;99.90;;;;;;4961555;28;20038;-67
2024/03/14 12:20:53;;;;;;;9.23;5.45;;;16.10;99.90;;;;;;4958491;28;20031;-68
2024/03/14 12:23:22;;;;;;;7.78;5.57;;;16.00;99.90;;;;;;4997181;23;20053;-71
2024/03/14 12:25:53;;;;;;;7.25;5.05;;;16.00;99.90;;;;;;4997672;28;20509;-69
2024/03/14 12:28:19;;;;;;;7.53;4.90;;;15.80;99.90;;;;;;4997315;28;20034;-70
2024/03/14 12:30:56;;;;;;;8.38;5.57;;;15.70;99.90;;;;;;4988058;28;20031;-70
2024/03/14 12:33:28;;;;;;;8.57;5.47;;;15.70;99.90;;;;;;4978452;28;20038;-70
2024/03/14 12:35:55;;;;;;;9.15;5.13;;;15.80;99.90;;;;;;4977312;28;20848;-70
2024/03/14 12:38:22;;;;;;;9.13;6.07;;;15.70;99.90;;;;;;4976284;28;20767;-67